Aérodrome :
LOGIN :

S'inscrire | Disclaimer

   EN    FR    IT 

 










Légende :    VFR   VFR Marginal   IFR   IFR Intensif   IFR Très Intensif
Visi : 
Plafond : 
>= 8 km
>= 3000ft
5 à 8 km
1000 à 3000 ft
1500m à 5 km
500 à 1000 ft
800 à 1500m
200 à 500 ft
< 800m
< 200 ft
Symboles :   Orages  Brouillard  Fortes neiges  Fortes précipitations  Vent > 20 kt
SIGMETs :   Divers  Orages  Givrage  Turbulence  Onde Orograph.  Cendres Volcan.






- Altitude de l'aérodrome : 137 ft


LIPS - Istrana AFB Treviso

DERNIER METAR :
  • 202355Z /////KT CAVOK 02/02 Q1023 RMK SKC VIS MIN 9999 WIND THR26 36003KT WIND THR08 03004KT BLU

METARs EXPIRÉS :
  • 202255Z /////KT CAVOK 03/03 Q1023 RMK SKC VIS MIN 9999 WIND THR26 05003KT WIND THR08 04003KT BLU
  • 202155Z /////KT CAVOK 03/03 Q1024 RMK SKC VIS MIN 9999 WIND THR26 01002KT WIND THR08 07003KT BLU

TAF TAF LIPS
Valide du 21 à 00h jusqu'au 21 à 09h UTC


202300Z 2100/2109 03004KT CAVOK
TEMPO 2101/2107 5000 BR NSC
PROB30
TEMPO 2103/2106 1500 BR



MET'MAP, la Météo Aéronautique d'un coup d'oeil ! - Copyright ORBIFLY Décembre 2007 - Disclaimer

ORBIFLY MET'MAP TEAM :

Programmation & Développement : Alexandra Zaïnal
Sur une idée originale de : Baudouin d'Aumeries
Assistance à la programmation : Marc-Olivier Méhu
Soutien technique & logistique : Manuel Goepfert

Contact : metmap@orbifly.com




SOURCES & CREDITS :

   NOAA